sensor_id;sensor_type;location;lat;lon;timestamp;pressure;altitude;pressure_sealevel;temperature;humidity
9189;BME280;34313;50.780;6.084;2022-11-20T00:01:38;99138.25;;;3.19;100.00
9189;BME280;34313;50.780;6.084;2022-11-20T00:04:03;99146.09;;;3.18;100.00
9189;BME280;34313;50.780;6.084;2022-11-20T00:06:29;99134.84;;;3.17;100.00
9189;BME280;34313;50.780;6.084;2022-11-20T00:08:56;99137.13;;;3.27;100.00
9189;BME280;34313;50.780;6.084;2022-11-20T00:11:23;99136.13;;;3.31;99.65
9189;BME280;34313;50.780;6.084;2022-11-20T00:13:51;99128.34;;;3.29;99.74
9189;BME280;34313;50.780;6.084;2022-11-20T00:16:19;99130.13;;;3.29;99.21
9189;BME280;34313;50.780;6.084;2022-11-20T00:18:45;99134.34;;;3.31;99.78
9189;BME280;34313;50.780;6.084;2022-11-20T00:21:13;99132.38;;;3.38;99.48
9189;BME280;34313;50.780;6.084;2022-11-20T00:23:39;99137.22;;;3.49;99.84
9189;BME280;34313;50.780;6.084;2022-11-20T00:26:06;99131.72;;;3.58;99.42
9189;BME280;34313;50.780;6.084;2022-11-20T00:28:32;99123.19;;;3.53;98.48
9189;BME280;34313;50.780;6.084;2022-11-20T00:33:27;99124.94;;;3.52;98.64
9189;BME280;34313;50.780;6.084;2022-11-20T00:35:53;99131.47;;;3.64;97.34
9189;BME280;34313;50.780;6.084;2022-11-20T00:38:18;99130.44;;;3.45;98.06
9189;BME280;34313;50.780;6.084;2022-11-20T00:40:43;99126.78;;;3.49;98.80
9189;BME280;34313;50.780;6.084;2022-11-20T00:43:09;99127.66;;;3.49;98.89
9189;BME280;34313;50.780;6.084;2022-11-20T00:45:34;99123.25;;;3.51;98.96
9189;BME280;34313;50.780;6.084;2022-11-20T00:47:59;99117.41;;;3.45;98.03
9189;BME280;34313;50.780;6.084;2022-11-20T00:50:25;99129.34;;;3.50;97.65
9189;BME280;34313;50.780;6.084;2022-11-20T00:52:50;99128.41;;;3.53;97.81
9189;BME280;34313;50.780;6.084;2022-11-20T00:55:15;99124.94;;;3.52;97.25
9189;BME280;34313;50.780;6.084;2022-11-20T00:57:41;99114.59;;;3.51;97.61
9189;BME280;34313;50.780;6.084;2022-11-20T01:00:06;99120.09;;;3.41;97.39
9189;BME280;34313;50.780;6.084;2022-11-20T01:02:32;99127.13;;;3.39;97.55
9189;BME280;34313;50.780;6.084;2022-11-20T01:04:57;99109.38;;;3.26;97.92
9189;BME280;34313;50.780;6.084;2022-11-20T01:07:22;99117.03;;;3.30;98.23
9189;BME280;34313;50.780;6.084;2022-11-20T01:09:48;99118.63;;;3.34;98.81
9189;BME280;34313;50.780;6.084;2022-11-20T01:12:13;99117.69;;;3.37;98.05
9189;BME280;34313;50.780;6.084;2022-11-20T01:14:38;99110.03;;;3.32;98.46
9189;BME280;34313;50.780;6.084;2022-11-20T01:17:04;99100.63;;;3.28;98.64
9189;BME280;34313;50.780;6.084;2022-11-20T01:19:29;99106.38;;;3.36;99.11
9189;BME280;34313;50.780;6.084;2022-11-20T01:21:55;99113.31;;;3.37;98.54
9189;BME280;34313;50.780;6.084;2022-11-20T01:24:21;99108.69;;;3.46;98.52
9189;BME280;34313;50.780;6.084;2022-11-20T01:26:49;99095.66;;;3.46;98.35
9189;BME280;34313;50.780;6.084;2022-11-20T01:29:22;99091.59;;;3.38;98.52
9189;BME280;34313;50.780;6.084;2022-11-20T01:31:49;99095.81;;;3.41;98.28
9189;BME280;34313;50.780;6.084;2022-11-20T01:34:17;99100.66;;;3.27;99.17
9189;BME280;34313;50.780;6.084;2022-11-20T01:36:43;99097.47;;;3.18;99.33
9189;BME280;34313;50.780;6.084;2022-11-20T01:39:16;99098.44;;;3.16;99.54
9189;BME280;34313;50.780;6.084;2022-11-20T01:41:42;99079.53;;;3.11;99.43
9189;BME280;34313;50.780;6.084;2022-11-20T01:47:25;99096.22;;;3.05;100.00
9189;BME280;34313;50.780;6.084;2022-11-20T01:50:15;99095.34;;;3.05;100.00
9189;BME280;34313;50.780;6.084;2022-11-20T01:52:51;99095.16;;;3.11;100.00
9189;BME280;34313;50.780;6.084;2022-11-20T01:55:23;99106.22;;;3.17;100.00
9189;BME280;34313;50.780;6.084;2022-11-20T01:57:50;99102.53;;;3.23;100.00
9189;BME280;34313;50.780;6.084;2022-11-20T02:00:18;99109.19;;;3.32;100.00
9189;BME280;34313;50.780;6.084;2022-11-20T02:02:48;99107.38;;;3.34;100.00
9189;BME280;34313;50.780;6.084;2022-11-20T02:05:45;99106.81;;;3.49;100.00
9189;BME280;34313;50.780;6.084;2022-11-20T02:08:12;99110.06;;;3.56;100.00
9189;BME280;34313;50.780;6.084;2022-11-20T02:10:38;99095.31;;;3.55;100.00
9189;BME280;34313;50.780;6.084;2022-11-20T02:13:03;99082.06;;;3.61;100.00
9189;BME280;34313;50.780;6.084;2022-11-20T02:15:48;99084.22;;;3.73;99.25
9189;BME280;34313;50.780;6.084;2022-11-20T02:18:16;99096.88;;;3.84;98.80
9189;BME280;34313;50.780;6.084;2022-11-20T02:20:44;99092.50;;;3.85;98.71
9189;BME280;34313;50.780;6.084;2022-11-20T02:23:23;99080.88;;;3.93;98.10
9189;BME280;34313;50.780;6.084;2022-11-20T02:25:50;99086.94;;;3.94;98.05
9189;BME280;34313;50.780;6.084;2022-11-20T02:28:18;99098.72;;;4.04;97.98
9189;BME280;34313;50.780;6.084;2022-11-20T02:30:43;99092.47;;;4.08;97.36
9189;BME280;34313;50.780;6.084;2022-11-20T02:33:09;99087.81;;;4.16;97.20
9189;BME280;34313;50.780;6.084;2022-11-20T02:38:01;99081.44;;;4.24;95.69
9189;BME280;34313;50.780;6.084;2022-11-20T02:40:28;99078.84;;;4.24;95.86
9189;BME280;34313;50.780;6.084;2022-11-20T02:42:57;99078.56;;;4.31;94.87
9189;BME280;34313;50.780;6.084;2022-11-20T02:45:23;99074.34;;;4.27;95.33
9189;BME280;34313;50.780;6.084;2022-11-20T02:47:49;99061.06;;;4.11;95.67
9189;BME280;34313;50.780;6.084;2022-11-20T02:50:14;99065.06;;;4.20;95.99
9189;BME280;34313;50.780;6.084;2022-11-20T02:52:40;99073.38;;;4.08;95.77
9189;BME280;34313;50.780;6.084;2022-11-20T02:55:06;99069.09;;;4.07;96.55
9189;BME280;34313;50.780;6.084;2022-11-20T02:57:31;99059.28;;;3.90;96.98
9189;BME280;34313;50.780;6.084;2022-11-20T02:59:56;99068.56;;;3.97;96.77
9189;BME280;34313;50.780;6.084;2022-11-20T03:02:22;99061.84;;;3.91;96.21
9189;BME280;34313;50.780;6.084;2022-11-20T03:04:47;99054.25;;;3.85;96.90
9189;BME280;34313;50.780;6.084;2022-11-20T03:07:13;99051.41;;;3.91;97.40
9189;BME280;34313;50.780;6.084;2022-11-20T03:09:38;99059.34;;;3.88;97.20
9189;BME280;34313;50.780;6.084;2022-11-20T03:12:04;99062.78;;;3.89;97.68
9189;BME280;34313;50.780;6.084;2022-11-20T03:14:29;99053.81;;;3.96;98.07
9189;BME280;34313;50.780;6.084;2022-11-20T03:16:55;99060.94;;;4.14;97.89
9189;BME280;34313;50.780;6.084;2022-11-20T03:19:21;99060.16;;;4.12;97.69
9189;BME280;34313;50.780;6.084;2022-11-20T03:21:46;99065.72;;;4.03;97.93
9189;BME280;34313;50.780;6.084;2022-11-20T03:24:12;99068.47;;;4.00;98.14
9189;BME280;34313;50.780;6.084;2022-11-20T03:26:38;99062.31;;;4.01;98.29
9189;BME280;34313;50.780;6.084;2022-11-20T03:29:04;99075.09;;;4.09;98.45
9189;BME280;34313;50.780;6.084;2022-11-20T03:31:32;99072.63;;;4.04;98.41
9189;BME280;34313;50.780;6.084;2022-11-20T03:33:59;99077.28;;;3.96;98.54
9189;BME280;34313;50.780;6.084;2022-11-20T03:36:26;99072.06;;;3.96;98.86
9189;BME280;34313;50.780;6.084;2022-11-20T03:38:54;99056.63;;;3.91;99.02
9189;BME280;34313;50.780;6.084;2022-11-20T03:41:25;99076.03;;;4.06;99.25
9189;BME280;34313;50.780;6.084;2022-11-20T03:43:52;99065.66;;;4.05;99.07
9189;BME280;34313;50.780;6.084;2022-11-20T03:46:19;99062.22;;;4.04;99.84
9189;BME280;34313;50.780;6.084;2022-11-20T03:48:44;99064.88;;;4.03;99.70
9189;BME280;34313;50.780;6.084;2022-11-20T03:53:37;99062.22;;;4.04;99.90
9189;BME280;34313;50.780;6.084;2022-11-20T03:56:03;99058.81;;;4.02;100.00
9189;BME280;34313;50.780;6.084;2022-11-20T03:58:29;99049.19;;;4.04;100.00
9189;BME280;34313;50.780;6.084;2022-11-20T04:00:54;99043.16;;;4.02;100.00
9189;BME280;34313;50.780;6.084;2022-11-20T04:03:20;99052.41;;;4.11;100.00
9189;BME280;34313;50.780;6.084;2022-11-20T04:05:45;99043.91;;;4.06;100.00
9189;BME280;34313;50.780;6.084;2022-11-20T04:08:10;99038.78;;;4.03;100.00
9189;BME280;34313;50.780;6.084;2022-11-20T04:10:36;99048.03;;;4.11;100.00
9189;BME280;34313;50.780;6.084;2022-11-20T04:13:01;99050.41;;;4.18;100.00
9189;BME280;34313;50.780;6.084;2022-11-20T04:15:26;99035.19;;;4.07;100.00
9189;BME280;34313;50.780;6.084;2022-11-20T04:17:52;99039.34;;;4.11;100.00
9189;BME280;34313;50.780;6.084;2022-11-20T04:20:18;99053.06;;;4.16;100.00
9189;BME280;34313;50.780;6.084;2022-11-20T04:22:44;99047.84;;;4.16;100.00
9189;BME280;34313;50.780;6.084;2022-11-20T04:25:10;99028.56;;;3.98;100.00
9189;BME280;34313;50.780;6.084;2022-11-20T04:27:35;99047.34;;;4.06;100.00
9189;BME280;34313;50.780;6.084;2022-11-20T04:30:00;99048.50;;;3.99;100.00
9189;BME280;34313;50.780;6.084;2022-11-20T04:32:26;99053.72;;;3.99;100.00
9189;BME280;34313;50.780;6.084;2022-11-20T04:34:51;99045.00;;;4.00;100.00
9189;BME280;34313;50.780;6.084;2022-11-20T04:37:16;99056.56;;;4.15;100.00
9189;BME280;34313;50.780;6.084;2022-11-20T04:39:42;99048.13;;;4.08;100.00
9189;BME280;34313;50.780;6.084;2022-11-20T04:42:08;99039.41;;;4.09;100.00
9189;BME280;34313;50.780;6.084;2022-11-20T04:44:52;99045.47;;;4.10;100.00
9189;BME280;34313;50.780;6.084;2022-11-20T04:47:18;99050.63;;;4.11;100.00
9189;BME280;34313;50.780;6.084;2022-11-20T04:49:44;99054.50;;;4.01;100.00
9189;BME280;34313;50.780;6.084;2022-11-20T04:52:09;99050.06;;;4.03;100.00
9189;BME280;34313;50.780;6.084;2022-11-20T04:54:34;99052.63;;;4.05;100.00
9189;BME280;34313;50.780;6.084;2022-11-20T04:57:00;99047.50;;;3.79;100.00
9189;BME280;34313;50.780;6.084;2022-11-20T04:59:25;99045.06;;;3.75;100.00
9189;BME280;34313;50.780;6.084;2022-11-20T05:01:50;99058.09;;;3.75;100.00
9189;BME280;34313;50.780;6.084;2022-11-20T05:04:16;99060.53;;;3.79;100.00
9189;BME280;34313;50.780;6.084;2022-11-20T05:06:41;99064.94;;;4.01;100.00
9189;BME280;34313;50.780;6.084;2022-11-20T05:09:07;99072.94;;;3.96;100.00
9189;BME280;34313;50.780;6.084;2022-11-20T05:11:32;99059.19;;;3.93;100.00
9189;BME280;34313;50.780;6.084;2022-11-20T05:13:59;99072.31;;;3.90;100.00
9189;BME280;34313;50.780;6.084;2022-11-20T05:16:25;99073.34;;;3.86;100.00
9189;BME280;34313;50.780;6.084;2022-11-20T05:18:52;99071.03;;;3.78;100.00
9189;BME280;34313;50.780;6.084;2022-11-20T05:21:18;99077.16;;;3.77;100.00
9189;BME280;34313;50.780;6.084;2022-11-20T05:23:44;99075.44;;;3.76;100.00
9189;BME280;34313;50.780;6.084;2022-11-20T05:26:16;99068.19;;;3.84;100.00
9189;BME280;34313;50.780;6.084;2022-11-20T05:28:42;99059.44;;;3.85;100.00
9189;BME280;34313;50.780;6.084;2022-11-20T05:31:09;99054.25;;;3.85;100.00
9189;BME280;34313;50.780;6.084;2022-11-20T05:33:35;99054.66;;;3.74;100.00
9189;BME280;34313;50.780;6.084;2022-11-20T05:36:02;99047.34;;;3.60;100.00
9189;BME280;34313;50.780;6.084;2022-11-20T05:38:27;99045.53;;;3.63;100.00
9189;BME280;34313;50.780;6.084;2022-11-20T05:40:53;99035.25;;;3.59;100.00
9189;BME280;34313;50.780;6.084;2022-11-20T05:43:18;99036.13;;;3.58;100.00
9189;BME280;34313;50.780;6.084;2022-11-20T05:45:54;99037.84;;;3.59;100.00
9189;BME280;34313;50.780;6.084;2022-11-20T05:48:19;99045.75;;;3.80;100.00
9189;BME280;34313;50.780;6.084;2022-11-20T05:50:45;99042.66;;;3.70;100.00
9189;BME280;34313;50.780;6.084;2022-11-20T05:53:11;99050.00;;;3.59;100.00
9189;BME280;34313;50.780;6.084;2022-11-20T05:55:36;99051.09;;;3.53;100.00
9189;BME280;34313;50.780;6.084;2022-11-20T05:58:01;99043.72;;;3.41;100.00
9189;BME280;34313;50.780;6.084;2022-11-20T06:00:27;99056.97;;;3.35;100.00
9189;BME280;34313;50.780;6.084;2022-11-20T06:02:52;99044.22;;;3.27;100.00
9189;BME280;34313;50.780;6.084;2022-11-20T06:05:17;99037.25;;;3.28;100.00
9189;BME280;34313;50.780;6.084;2022-11-20T06:07:43;99059.28;;;3.43;100.00
9189;BME280;34313;50.780;6.084;2022-11-20T06:10:08;99053.28;;;3.40;100.00
9189;BME280;34313;50.780;6.084;2022-11-20T06:12:34;99049.09;;;3.36;100.00
9189;BME280;34313;50.780;6.084;2022-11-20T06:14:59;99044.09;;;3.30;100.00
9189;BME280;34313;50.780;6.084;2022-11-20T06:17:25;99040.03;;;3.23;100.00
9189;BME280;34313;50.780;6.084;2022-11-20T06:19:51;99054.59;;;3.29;100.00
9189;BME280;34313;50.780;6.084;2022-11-20T06:22:16;99063.81;;;3.37;100.00
9189;BME280;34313;50.780;6.084;2022-11-20T06:24:42;99058.94;;;3.28;100.00
9189;BME280;34313;50.780;6.084;2022-11-20T06:27:07;99062.09;;;3.36;100.00
9189;BME280;34313;50.780;6.084;2022-11-20T06:29:32;99054.44;;;3.33;100.00
9189;BME280;34313;50.780;6.084;2022-11-20T06:31:58;99062.75;;;3.43;100.00
9189;BME280;34313;50.780;6.084;2022-11-20T06:34:23;99058.63;;;3.37;100.00
9189;BME280;34313;50.780;6.084;2022-11-20T06:36:48;99064.94;;;3.30;100.00
9189;BME280;34313;50.780;6.084;2022-11-20T06:39:14;99059.84;;;3.27;100.00
9189;BME280;34313;50.780;6.084;2022-11-20T06:41:39;99057.97;;;3.31;100.00
9189;BME280;34313;50.780;6.084;2022-11-20T06:44:05;99076.84;;;3.37;100.00
9189;BME280;34313;50.780;6.084;2022-11-20T06:46:30;99084.72;;;3.36;100.00
9189;BME280;34313;50.780;6.084;2022-11-20T06:48:56;99083.03;;;3.35;100.00
9189;BME280;34313;50.780;6.084;2022-11-20T06:51:23;99071.09;;;3.28;100.00
9189;BME280;34313;50.780;6.084;2022-11-20T06:53:48;99086.47;;;3.35;100.00
9189;BME280;34313;50.780;6.084;2022-11-20T06:56:13;99082.16;;;3.34;100.00
9189;BME280;34313;50.780;6.084;2022-11-20T06:58:39;99086.44;;;3.37;100.00
9189;BME280;34313;50.780;6.084;2022-11-20T07:01:13;99075.94;;;3.38;100.00
9189;BME280;34313;50.780;6.084;2022-11-20T07:03:39;99071.59;;;3.39;100.00
9189;BME280;34313;50.780;6.084;2022-11-20T07:06:05;99072.97;;;3.49;100.00
9189;BME280;34313;50.780;6.084;2022-11-20T07:08:31;99066.03;;;3.48;100.00
9189;BME280;34313;50.780;6.084;2022-11-20T07:10:59;99078.66;;;3.59;100.00
9189;BME280;34313;50.780;6.084;2022-11-20T07:13:25;99075.16;;;3.60;100.00
9189;BME280;34313;50.780;6.084;2022-11-20T07:15:51;99073.34;;;3.62;100.00
9189;BME280;34313;50.780;6.084;2022-11-20T07:18:16;99060.44;;;3.59;100.00
9189;BME280;34313;50.780;6.084;2022-11-20T07:20:41;99075.00;;;3.65;100.00
9189;BME280;34313;50.780;6.084;2022-11-20T07:23:07;99064.69;;;3.62;100.00
9189;BME280;34313;50.780;6.084;2022-11-20T07:25:32;99068.88;;;3.66;100.00
9189;BME280;34313;50.780;6.084;2022-11-20T07:27:58;99055.94;;;3.63;100.00
9189;BME280;34313;50.780;6.084;2022-11-20T07:30:24;99065.03;;;3.76;100.00
9189;BME280;34313;50.780;6.084;2022-11-20T07:32:54;99075.00;;;3.88;100.00
9189;BME280;34313;50.780;6.084;2022-11-20T07:35:20;99067.22;;;3.87;100.00
9189;BME280;34313;50.780;6.084;2022-11-20T07:37:46;99057.72;;;3.86;100.00
9189;BME280;34313;50.780;6.084;2022-11-20T07:40:13;99054.03;;;3.91;100.00
9189;BME280;34313;50.780;6.084;2022-11-20T07:42:38;99061.59;;;3.97;100.00
9189;BME280;34313;50.780;6.084;2022-11-20T07:45:04;99064.25;;;3.96;100.00
9189;BME280;34313;50.780;6.084;2022-11-20T07:47:35;99069.34;;;3.99;100.00
9189;BME280;34313;50.780;6.084;2022-11-20T07:50:01;99071.56;;;4.10;99.81
9189;BME280;34313;50.780;6.084;2022-11-20T07:52:26;99053.13;;;4.14;98.73
9189;BME280;34313;50.780;6.084;2022-11-20T07:54:52;99058.69;;;4.27;97.91
9189;BME280;34313;50.780;6.084;2022-11-20T07:57:17;99048.03;;;4.33;96.71
9189;BME280;34313;50.780;6.084;2022-11-20T07:59:42;99053.72;;;4.43;96.29
9189;BME280;34313;50.780;6.084;2022-11-20T08:02:10;99058.69;;;4.49;96.87
9189;BME280;34313;50.780;6.084;2022-11-20T08:04:35;99058.38;;;4.57;96.38
9189;BME280;34313;50.780;6.084;2022-11-20T08:07:01;99059.25;;;4.58;95.40
9189;BME280;34313;50.780;6.084;2022-11-20T08:09:26;99060.19;;;4.55;95.68
9189;BME280;34313;50.780;6.084;2022-11-20T08:11:51;99059.25;;;4.58;95.67
9189;BME280;34313;50.780;6.084;2022-11-20T08:14:35;99056.38;;;4.64;95.03
9189;BME280;34313;50.780;6.084;2022-11-20T08:17:01;99064.59;;;4.75;95.31
9189;BME280;34313;50.780;6.084;2022-11-20T08:19:26;99060.50;;;4.90;93.97
9189;BME280;34313;50.780;6.084;2022-11-20T08:21:52;99052.50;;;4.95;93.06
9189;BME280;34313;50.780;6.084;2022-11-20T08:24:17;99053.91;;;5.02;92.01
9189;BME280;34313;50.780;6.084;2022-11-20T08:26:42;99054.69;;;5.04;92.09
9189;BME280;34313;50.780;6.084;2022-11-20T08:29:08;99056.19;;;5.09;91.75
9189;BME280;34313;50.780;6.084;2022-11-20T08:31:33;99055.00;;;5.17;90.47
9189;BME280;34313;50.780;6.084;2022-11-20T08:33:58;99052.63;;;5.12;90.58
9189;BME280;34313;50.780;6.084;2022-11-20T08:36:24;99056.59;;;5.21;89.91
9189;BME280;34313;50.780;6.084;2022-11-20T08:38:51;99051.88;;;5.29;89.29
9189;BME280;34313;50.780;6.084;2022-11-20T08:41:17;99056.84;;;5.35;88.70
9189;BME280;34313;50.780;6.084;2022-11-20T08:43:53;99060.94;;;5.41;88.10
9189;BME280;34313;50.780;6.084;2022-11-20T08:46:19;99055.66;;;5.42;88.43
9189;BME280;34313;50.780;6.084;2022-11-20T08:48:45;99042.72;;;5.39;87.84
9189;BME280;34313;50.780;6.084;2022-11-20T08:51:11;99043.53;;;5.40;87.92
9189;BME280;34313;50.780;6.084;2022-11-20T08:53:37;99051.84;;;5.49;87.77
9189;BME280;34313;50.780;6.084;2022-11-20T08:56:03;99036.66;;;5.58;87.29
9189;BME280;34313;50.780;6.084;2022-11-20T08:58:28;99048.06;;;5.76;87.06
9189;BME280;34313;50.780;6.084;2022-11-20T09:00:54;99039.03;;;6.02;86.03
9189;BME280;34313;50.780;6.084;2022-11-20T09:03:19;99028.75;;;6.16;85.31
9189;BME280;34313;50.780;6.084;2022-11-20T09:05:45;99039.19;;;6.35;84.52
9189;BME280;34313;50.780;6.084;2022-11-20T09:08:10;99047.34;;;6.47;83.99
9189;BME280;34313;50.780;6.084;2022-11-20T09:10:36;99038.72;;;6.44;83.06
9189;BME280;34313;50.780;6.084;2022-11-20T09:13:05;99039.75;;;6.42;83.76
9189;BME280;34313;50.780;6.084;2022-11-20T09:15:30;99030.25;;;6.39;83.47
9189;BME280;34313;50.780;6.084;2022-11-20T09:17:58;99038.53;;;6.49;83.49
9189;BME280;34313;50.780;6.084;2022-11-20T09:20:25;99041.63;;;6.57;83.15
9189;BME280;34313;50.780;6.084;2022-11-20T09:22:50;99028.19;;;6.46;83.29
9189;BME280;34313;50.780;6.084;2022-11-20T09:25:16;99027.28;;;6.47;83.79
9189;BME280;34313;50.780;6.084;2022-11-20T09:27:42;99028.13;;;6.48;83.97
9189;BME280;34313;50.780;6.084;2022-11-20T09:30:09;99022.88;;;6.48;84.28
9189;BME280;34313;50.780;6.084;2022-11-20T09:32:35;99025.03;;;6.57;84.10
9189;BME280;34313;50.780;6.084;2022-11-20T09:35:01;99013.72;;;6.56;84.35
9189;BME280;34313;50.780;6.084;2022-11-20T09:37:27;99010.88;;;6.61;84.20
9189;BME280;34313;50.780;6.084;2022-11-20T09:39:52;99006.16;;;6.68;83.83
9189;BME280;34313;50.780;6.084;2022-11-20T09:42:36;99002.41;;;6.73;84.22
9189;BME280;34313;50.780;6.084;2022-11-20T09:45:24;99000.22;;;6.99;83.70
9189;BME280;34313;50.780;6.084;2022-11-20T09:48:08;99005.06;;;7.24;82.37
9189;BME280;34313;50.780;6.084;2022-11-20T09:50:55;99001.78;;;7.36;81.87
9189;BME280;34313;50.780;6.084;2022-11-20T09:53:37;99006.75;;;7.41;81.08
9189;BME280;34313;50.780;6.084;2022-11-20T09:56:10;98984.56;;;7.31;81.28
9189;BME280;34313;50.780;6.084;2022-11-20T09:58:42;99001.13;;;7.49;81.31
9189;BME280;34313;50.780;6.084;2022-11-20T10:01:12;99006.09;;;7.53;80.96
9189;BME280;34313;50.780;6.084;2022-11-20T10:06:13;99002.56;;;7.70;80.52
9189;BME280;34313;50.780;6.084;2022-11-20T10:08:44;98999.94;;;7.70;80.71
9189;BME280;34313;50.780;6.084;2022-11-20T10:17:02;98983.69;;;7.48;81.98
9189;BME280;34313;50.780;6.084;2022-11-20T10:22:31;98981.97;;;7.31;83.25
9189;BME280;34313;50.780;6.084;2022-11-20T10:27:55;98973.09;;;7.33;85.10
9189;BME280;34313;50.780;6.084;2022-11-20T10:30:22;98954.00;;;7.31;85.20
9189;BME280;34313;50.780;6.084;2022-11-20T10:33:04;98965.63;;;7.59;85.73
9189;BME280;34313;50.780;6.084;2022-11-20T10:35:37;98958.91;;;7.69;85.14
9189;BME280;34313;50.780;6.084;2022-11-20T10:38:54;98961.88;;;7.79;85.03
9189;BME280;34313;50.780;6.084;2022-11-20T10:40:59;98952.47;;;7.91;84.50
9189;BME280;34313;50.780;6.084;2022-11-20T10:43:44;98957.22;;;8.00;84.03
9189;BME280;34313;50.780;6.084;2022-11-20T10:46:20;98950.44;;;8.12;84.23
9189;BME280;34313;50.780;6.084;2022-11-20T10:48:48;98927.63;;;8.12;83.57
9189;BME280;34313;50.780;6.084;2022-11-20T10:54:23;98938.06;;;8.44;83.62
9189;BME280;34313;50.780;6.084;2022-11-20T10:56:53;98927.22;;;8.50;83.61
9189;BME280;34313;50.780;6.084;2022-11-20T10:59:32;98915.34;;;8.74;82.71
9189;BME280;34313;50.780;6.084;2022-11-20T11:02:01;98907.75;;;8.98;81.71
9189;BME280;34313;50.780;6.084;2022-11-20T11:07:13;98904.94;;;9.57;79.98
9189;BME280;34313;50.780;6.084;2022-11-20T11:09:44;98893.72;;;9.82;78.39
9189;BME280;34313;50.780;6.084;2022-11-20T11:12:11;98880.78;;;9.92;77.54
9189;BME280;34313;50.780;6.084;2022-11-20T11:20:24;98873.81;;;10.31;75.58
9189;BME280;34313;50.780;6.084;2022-11-20T11:22:53;98863.28;;;10.31;75.39
9189;BME280;34313;50.780;6.084;2022-11-20T11:27:52;98865.13;;;10.43;75.20
9189;BME280;34313;50.780;6.084;2022-11-20T11:30:19;98846.88;;;10.53;74.71
9189;BME280;34313;50.780;6.084;2022-11-20T11:32:45;98846.16;;;10.51;74.61
9189;BME280;34313;50.780;6.084;2022-11-20T11:35:26;98834.25;;;10.45;74.60
9189;BME280;34313;50.780;6.084;2022-11-20T11:37:54;98843.63;;;10.49;74.66
9189;BME280;34313;50.780;6.084;2022-11-20T11:40:28;98836.78;;;10.47;74.92
9189;BME280;34313;50.780;6.084;2022-11-20T11:43:16;98834.47;;;10.42;75.34
9189;BME280;34313;50.780;6.084;2022-11-20T11:46:08;98835.81;;;10.48;75.66
9189;BME280;34313;50.780;6.084;2022-11-20T11:48:55;98826.97;;;10.36;75.42
9189;BME280;34313;50.780;6.084;2022-11-20T11:51:21;98818.84;;;10.39;75.57
9189;BME280;34313;50.780;6.084;2022-11-20T11:53:46;98793.13;;;10.17;75.88
9189;BME280;34313;50.780;6.084;2022-11-20T11:56:13;98817.47;;;10.20;76.28
9189;BME280;34313;50.780;6.084;2022-11-20T11:58:47;98813.75;;;10.23;76.26
9189;BME280;34313;50.780;6.084;2022-11-20T12:03:44;98803.88;;;10.39;75.35
9189;BME280;34313;50.780;6.084;2022-11-20T12:06:15;98802.63;;;10.32;75.39
9189;BME280;34313;50.780;6.084;2022-11-20T12:08:52;98809.59;;;10.59;75.00
9189;BME280;34313;50.780;6.084;2022-11-20T12:11:38;98802.91;;;10.79;74.39
9189;BME280;34313;50.780;6.084;2022-11-20T12:16:49;98784.41;;;10.68;73.33
9189;BME280;34313;50.780;6.084;2022-11-20T12:19:15;98795.03;;;10.66;73.69
9189;BME280;34313;50.780;6.084;2022-11-20T12:21:59;98790.81;;;10.64;73.54
9189;BME280;34313;50.780;6.084;2022-11-20T12:30:19;98772.47;;;9.98;76.30
9189;BME280;34313;50.780;6.084;2022-11-20T12:35:37;98765.38;;;9.86;76.11
9189;BME280;34313;50.780;6.084;2022-11-20T12:43:31;98753.88;;;9.61;77.50
9189;BME280;34313;50.780;6.084;2022-11-20T12:46:45;98751.91;;;9.77;77.10
9189;BME280;34313;50.780;6.084;2022-11-20T12:51:50;98749.84;;;10.08;76.04
9189;BME280;34313;50.780;6.084;2022-11-20T13:02:25;98730.34;;;10.11;74.52
9189;BME280;34313;50.780;6.084;2022-11-20T13:05:19;98727.41;;;10.15;74.67
9189;BME280;34313;50.780;6.084;2022-11-20T13:07:46;98720.13;;;10.19;74.43
9189;BME280;34313;50.780;6.084;2022-11-20T13:13:01;98720.44;;;10.14;74.35
9189;BME280;34313;50.780;6.084;2022-11-20T13:15:39;98710.97;;;10.12;74.38
9189;BME280;34313;50.780;6.084;2022-11-20T13:18:09;98712.34;;;10.05;74.65
9189;BME280;34313;50.780;6.084;2022-11-20T13:20:36;98693.69;;;9.95;73.86
9189;BME280;34313;50.780;6.084;2022-11-20T13:23:06;98685.47;;;9.87;73.96
9189;BME280;34313;50.780;6.084;2022-11-20T13:25:39;98694.63;;;9.81;74.38
9189;BME280;34313;50.780;6.084;2022-11-20T13:30:36;98680.41;;;9.71;73.86
9189;BME280;34313;50.780;6.084;2022-11-20T13:33:32;98695.25;;;9.72;74.35
9189;BME280;34313;50.780;6.084;2022-11-20T13:36:21;98682.50;;;9.53;74.14
9189;BME280;34313;50.780;6.084;2022-11-20T13:38:49;98690.88;;;9.32;74.78
9189;BME280;34313;50.780;6.084;2022-11-20T13:46:43;98670.03;;;9.29;74.37
9189;BME280;34313;50.780;6.084;2022-11-20T13:49:25;98660.84;;;9.22;74.91
9189;BME280;34313;50.780;6.084;2022-11-20T14:00:28;98649.16;;;8.73;76.28
9189;BME280;34313;50.780;6.084;2022-11-20T14:03:02;98642.41;;;8.69;76.84
9189;BME280;34313;50.780;6.084;2022-11-20T14:05:40;98633.19;;;8.49;77.47
9189;BME280;34313;50.780;6.084;2022-11-20T14:08:21;98649.50;;;8.54;77.92
9189;BME280;34313;50.780;6.084;2022-11-20T14:10:48;98638.53;;;8.47;78.65
9189;BME280;34313;50.780;6.084;2022-11-20T14:13:18;98639.53;;;8.45;78.89
9189;BME280;34313;50.780;6.084;2022-11-20T14:15:44;98641.25;;;8.46;79.47
9189;BME280;34313;50.780;6.084;2022-11-20T14:18:21;98621.84;;;8.20;78.31
9189;BME280;34313;50.780;6.084;2022-11-20T14:20:47;98622.44;;;8.10;79.25
9189;BME280;34313;50.780;6.084;2022-11-20T14:23:22;98613.72;;;7.95;79.99
9189;BME280;34313;50.780;6.084;2022-11-20T14:25:48;98620.75;;;7.95;81.78
9189;BME280;34313;50.780;6.084;2022-11-20T14:28:23;98606.81;;;7.80;82.92
9189;BME280;34313;50.780;6.084;2022-11-20T14:30:49;98606.44;;;7.72;84.37
9189;BME280;34313;50.780;6.084;2022-11-20T14:33:15;98605.38;;;7.74;85.31
9189;BME280;34313;50.780;6.084;2022-11-20T14:35:51;98602.66;;;7.62;85.97
9189;BME280;34313;50.780;6.084;2022-11-20T14:38:19;98602.28;;;7.68;86.78
9189;BME280;34313;50.780;6.084;2022-11-20T14:40:46;98596.75;;;7.72;86.71
9189;BME280;34313;50.780;6.084;2022-11-20T14:43:23;98590.13;;;7.67;87.16
9189;BME280;34313;50.780;6.084;2022-11-20T14:46:15;98584.50;;;7.58;88.05
9189;BME280;34313;50.780;6.084;2022-11-20T14:48:44;98573.44;;;7.53;88.04
9189;BME280;34313;50.780;6.084;2022-11-20T14:51:12;98564.44;;;7.43;88.37
9189;BME280;34313;50.780;6.084;2022-11-20T14:53:48;98564.44;;;7.43;89.16